Time;durP1;ratioP1;P1;durP2;ratioP2;P2;SDS_P1;SDS_P2;PMS_P1;PMS_P2;Temp;Humidity;BMP_temperature;BMP_pressure;BME280_temperature;BME280_humidity;BME280_pressure;Samples;Min_cycle;Max_cycle;Signal;HPM_P1;HPM_P2
2022/10/27 00:01:14;;;;;;;;;5.50;1.75;;;;;19.26;71.13;101538.13;5076135;28;45309;-67
2022/10/27 00:03:39;;;;;;;;;2.25;2.25;;;;;19.36;70.77;101554.41;5059539;27;45301;-67
2022/10/27 00:06:06;;;;;;;;;2.00;1.00;;;;;19.35;71.11;101550.00;5055212;28;45424;-67
2022/10/27 00:08:32;;;;;;;;;1.00;1.00;;;;;19.36;71.20;101553.56;5056068;28;46336;-66
2022/10/27 00:10:59;;;;;;;;;1.00;1.00;;;;;19.06;70.89;101503.78;5055424;28;45367;-67
2022/10/27 00:13:25;;;;;;;;;1.75;1.75;;;;;19.39;70.78;101562.28;5070898;28;45439;-67
2022/10/27 00:16:07;;;;;;;;;0.67;0.67;;;;;19.40;70.60;101569.41;5055295;28;45490;-67
2022/10/27 00:18:32;;;;;;;;;2.00;2.00;;;;;19.27;70.85;101549.78;5055291;28;47075;-67
2022/10/27 00:21:01;;;;;;;;;2.00;2.00;;;;;19.40;70.91;101572.09;5055490;28;45359;-67
2022/10/27 00:23:27;;;;;;;;;0.33;0.33;;;;;19.12;71.22;101522.16;5055033;28;45313;-67
2022/10/27 00:25:55;;;;;;;;;2.00;2.00;;;;;19.03;70.86;101510.28;5055910;28;45567;-67
2022/10/27 00:28:21;;;;;;;;;1.67;1.33;;;;;19.33;70.81;101568.22;5054094;28;47308;-67
2022/10/27 00:30:46;;;;;;;;;1.00;1.00;;;;;19.25;70.91;101555.31;5055037;28;45254;-67
2022/10/27 00:33:12;;;;;;;;;1.67;1.67;;;;;19.13;70.90;101545.53;5055235;28;45421;-67
2022/10/27 00:35:37;;;;;;;;;2.00;2.00;;;;;19.14;70.79;101541.84;5053856;28;45895;-67
2022/10/27 00:38:02;;;;;;;;;2.33;2.33;;;;;19.31;70.83;101559.34;5055107;28;45381;-68
2022/10/27 00:40:28;;;;;;;;;2.00;2.00;;;;;19.18;71.28;101546.00;5053286;28;45352;-67
2022/10/27 00:42:53;;;;;;;;;1.00;1.00;;;;;19.23;71.06;101545.63;5055117;28;45341;-67
2022/10/27 00:45:20;;;;;;;;;0.67;0.67;;;;;19.26;71.24;101562.44;5055334;28;45585;-67
2022/10/27 00:47:46;;;;;;;;;1.67;1.67;;;;;19.03;71.36;101521.09;5054720;28;46511;-67
2022/10/27 00:50:18;;;;;;;;;2.00;2.00;;;;;19.20;71.45;101560.25;5054486;28;45379;-66
2022/10/27 00:52:58;;;;;;;;;2.75;1.75;;;;;19.17;70.86;101561.34;5055124;28;45481;-67
2022/10/27 00:55:29;;;;;;;;;4.00;1.00;;;;;18.78;71.27;101492.50;5053852;28;45584;-67
2022/10/27 00:57:57;;;;;;;;;1.50;0.75;;;;;19.16;70.74;101550.69;5055090;28;46516;-67
2022/10/27 01:00:24;;;;;;;;;1.00;1.00;;;;;18.80;71.13;101490.50;5052810;28;45393;-66
2022/10/27 01:02:50;;;;;;;;;1.50;1.50;;;;;18.63;70.77;101459.50;5053579;28;45515;-67
2022/10/27 01:05:21;;;;;;;;;1.00;1.00;;;;;19.08;71.16;101540.47;5054540;28;45393;-67
2022/10/27 01:07:49;;;;;;;;;1.25;1.25;;;;;18.92;70.96;101513.88;5054587;28;45428;-67
2022/10/27 01:10:16;;;;;;;;;3.00;3.00;;;;;19.04;71.46;101536.31;5054847;28;45388;-67
2022/10/27 01:12:42;;;;;;;;;2.00;2.00;;;;;18.66;70.94;101478.16;5055027;28;45407;-66
2022/10/27 01:15:09;;;;;;;;;2.00;1.75;;;;;18.99;71.30;101534.00;5052327;28;45430;-66
2022/10/27 01:17:56;;;;;;;;;1.75;1.75;;;;;18.99;71.77;101530.47;5033981;28;46723;-67
2022/10/27 01:20:46;;;;;;;;;3.00;3.00;;;;;19.01;71.21;101524.91;5037639;28;45329;-67
2022/10/27 01:23:26;;;;;;;;;2.33;2.33;;;;;18.98;71.10;101526.88;5038070;28;45282;-67
2022/10/27 01:25:57;;;;;;;;;1.75;1.75;;;;;18.95;71.24;101524.44;5038226;28;45609;-67
2022/10/27 01:29:00;;;;;;;;;1.67;1.67;;;;;18.96;71.31;101528.00;5037734;28;46541;-66
2022/10/27 01:31:35;;;;;;;;;1.00;1.00;;;;;18.91;71.48;101524.81;5037779;28;45377;-67
2022/10/27 01:34:26;;;;;;;;;1.00;1.00;;;;;18.78;71.46;101509.56;5041290;28;45696;-66
2022/10/27 01:36:58;;;;;;;;;2.00;0.75;;;;;18.69;71.73;101486.00;5057829;28;45508;-67
2022/10/27 01:39:29;;;;;;;;;2.00;1.00;;;;;18.76;71.64;101503.44;5057923;28;45372;-67
2022/10/27 01:41:59;;;;;;;;;0.67;0.67;;;;;18.84;71.60;101508.19;5058065;28;45471;-67
2022/10/27 01:44:33;;;;;;;;;2.00;1.00;;;;;18.85;71.56;101514.47;5057943;28;45465;-67
2022/10/27 01:47:00;;;;;;;;;2.50;1.25;;;;;18.85;71.38;101520.72;5057504;28;45349;-67
2022/10/27 01:49:40;;;;;;;;;1.00;1.00;;;;;18.77;71.33;101512.41;5057726;28;45373;-67
2022/10/27 01:52:07;;;;;;;;;2.67;2.67;;;;;18.80;71.42;101513.00;5057482;28;45336;-67
2022/10/27 01:54:35;;;;;;;;;0.67;0.67;;;;;18.70;71.58;101506.63;5057952;28;45251;-66
2022/10/27 01:57:06;;;;;;;;;5.75;3.00;;;;;18.74;71.50;101510.81;5057980;28;45345;-67
2022/10/27 01:59:53;;;;;;;;;1.00;1.00;;;;;18.75;71.96;101514.38;5057533;28;45531;-67
2022/10/27 02:02:34;;;;;;;;;2.00;2.00;;;;;18.75;71.59;101517.09;5073089;28;45402;-67
2022/10/27 02:05:31;;;;;;;;;1.75;1.75;;;;;18.73;71.61;101511.78;5057873;28;45384;-67
2022/10/27 02:08:11;;;;;;;;;3.00;2.00;;;;;18.63;72.07;101505.44;5057618;28;45357;-66
2022/10/27 02:10:49;;;;;;;;;1.33;1.33;;;;;18.65;71.73;101498.03;5057331;28;46319;-67
2022/10/27 02:13:15;;;;;;;;;3.25;2.00;;;;;18.28;71.87;101441.63;5057608;28;45310;-67
2022/10/27 02:16:09;;;;;;;;;1.33;0.67;;;;;18.64;71.97;101485.53;5057608;28;45373;-67
2022/10/27 02:18:41;;;;;;;;;2.00;2.00;;;;;18.58;71.83;101488.72;5052637;28;45595;-66
2022/10/27 02:21:08;;;;;;;;;2.50;2.00;;;;;18.53;71.91;101489.13;5057173;28;45747;-66
2022/10/27 02:23:35;;;;;;;;;1.75;1.75;;;;;18.46;72.20;101486.06;5057147;28;45377;-67
2022/10/27 02:26:17;;;;;;;;;1.00;1.00;;;;;18.42;72.28;101481.88;5057430;28;45432;-66
2022/10/27 02:28:58;;;;;;;;;1.75;1.75;;;;;18.38;72.48;101484.94;5057211;28;45494;-66
2022/10/27 02:31:29;;;;;;;;;2.25;1.75;;;;;18.33;72.74;101479.94;5056544;28;47329;-66
2022/10/27 02:33:56;;;;;;;;;2.67;1.67;;;;;18.27;72.83;101473.16;5057164;28;45326;-67
2022/10/27 02:36:22;;;;;;;;;2.25;2.00;;;;;18.31;72.78;101482.75;5057317;28;45436;-67
2022/10/27 02:38:47;;;;;;;;;1.00;1.00;;;;;18.35;72.66;101469.00;5056911;28;45440;-67
2022/10/27 02:41:13;;;;;;;;;1.75;1.75;;;;;18.36;72.56;101466.16;5056969;28;46725;-67
2022/10/27 02:43:38;;;;;;;;;1.25;1.25;;;;;18.31;72.59;101457.56;5056624;28;45347;-67
2022/10/27 02:46:03;;;;;;;;;1.25;1.25;;;;;18.35;72.54;101467.13;5057118;28;45401;-67
2022/10/27 02:48:29;;;;;;;;;2.75;2.75;;;;;18.33;72.31;101467.28;5057318;28;45453;-67
2022/10/27 02:50:54;;;;;;;;;1.00;1.00;;;;;18.39;72.49;101467.75;5056608;28;45408;-67
2022/10/27 02:53:19;;;;;;;;;2.00;2.00;;;;;17.48;72.63;101344.44;5056846;28;45314;-67
2022/10/27 02:55:45;;;;;;;;;0.50;0.50;;;;;18.17;72.46;101431.69;5056462;28;45410;-67
2022/10/27 02:58:10;;;;;;;;;1.75;1.75;;;;;18.44;72.27;101479.06;5056842;28;45513;-67
2022/10/27 03:00:35;;;;;;;;;0.67;0.67;;;;;18.44;72.06;101479.91;5056273;28;46560;-67
2022/10/27 03:03:01;;;;;;;;;1.75;1.75;;;;;18.46;72.10;101477.94;5056668;28;45541;-67
2022/10/27 03:05:27;;;;;;;;;1.67;1.67;;;;;18.47;72.02;101474.25;5056948;28;45421;-67
2022/10/27 03:07:52;;;;;;;;;2.75;1.00;;;;;18.45;72.05;101481.63;5056621;28;45513;-67
2022/10/27 03:10:18;;;;;;;;;2.50;1.25;;;;;18.11;71.87;101424.06;5056238;28;46035;-67
2022/10/27 03:12:46;;;;;;;;;0.50;0.50;;;;;18.47;71.51;101484.19;5056394;28;45502;-67
2022/10/27 03:15:11;;;;;;;;;1.75;1.75;;;;;18.47;71.99;101484.19;5056584;28;45329;-66
2022/10/27 03:17:42;;;;;;;;;2.00;2.00;;;;;18.47;71.65;101474.25;5056454;28;45355;-67
2022/10/27 03:20:08;;;;;;;;;1.00;1.00;;;;;18.47;71.71;101474.25;5056222;28;45555;-68
2022/10/27 03:22:37;;;;;;;;;2.00;2.00;;;;;18.12;71.63;101415.84;5056093;28;45425;-67
2022/10/27 03:25:02;;;;;;;;;4.00;3.00;;;;;18.42;71.70;101465.69;5056599;28;45366;-67
2022/10/27 03:27:28;;;;;;;;;1.50;1.50;;;;;18.47;71.37;101478.81;5056375;28;45430;-67
2022/10/27 03:29:53;;;;;;;;;1.75;1.75;;;;;18.25;71.29;101441.88;5056387;28;46584;-67
2022/10/27 03:32:18;;;;;;;;;2.50;0.75;;;;;18.36;71.29;101459.91;5055962;28;45404;-67
2022/10/27 03:34:44;;;;;;;;;1.25;1.25;;;;;18.44;71.24;101479.91;5055093;28;45464;-68
2022/10/27 03:37:09;;;;;;;;;2.00;2.00;;;;;18.37;71.21;101473.28;5056244;28;45400;-67
2022/10/27 03:39:34;;;;;;;;;4.50;2.50;;;;;18.46;71.00;101483.34;5054537;28;45591;-67
2022/10/27 03:41:59;;;;;;;;;1.00;1.00;;;;;18.44;70.92;101477.19;5054969;28;45308;-67
2022/10/27 03:44:25;;;;;;;;;2.00;2.00;;;;;18.24;71.04;101446.41;5056236;28;45497;-67
2022/10/27 03:46:50;;;;;;;;;1.25;1.00;;;;;18.42;70.92;101476.50;5054674;28;45367;-68
2022/10/27 03:49:15;;;;;;;;;2.00;2.00;;;;;18.42;71.25;101476.50;5055960;28;45445;-67
2022/10/27 03:51:41;;;;;;;;;2.00;2.00;;;;;18.42;70.93;101471.09;5055937;28;45511;-67
2022/10/27 03:54:06;;;;;;;;;3.50;2.00;;;;;18.42;70.80;101476.50;5056062;28;45325;-67
2022/10/27 03:56:31;;;;;;;;;2.00;2.00;;;;;18.40;70.57;101467.63;5053321;28;45436;-67
2022/10/27 03:58:57;;;;;;;;;1.75;1.75;;;;;18.42;70.53;101462.97;5048250;28;46214;-67
2022/10/27 04:01:22;;;;;;;;;1.33;1.33;;;;;18.37;70.63;101462.50;5035095;28;45487;-67
2022/10/27 04:03:48;;;;;;;;;2.50;2.50;;;;;17.62;70.63;101345.19;5035121;28;45294;-67
2022/10/27 04:06:13;;;;;;;;;3.00;2.00;;;;;18.40;70.62;101473.03;5039807;28;45417;-67
2022/10/27 04:08:38;;;;;;;;;2.00;2.00;;;;;17.68;70.53;101352.81;5042373;28;46331;-67
2022/10/27 04:11:04;;;;;;;;;2.00;2.00;;;;;17.94;70.59;101396.59;5037175;28;45339;-67
2022/10/27 04:13:29;;;;;;;;;3.00;1.67;;;;;18.40;70.51;101486.53;5035837;28;45219;-67
2022/10/27 04:15:58;;;;;;;;;2.00;2.00;;;;;18.31;70.77;101474.66;5040067;28;45295;-67
2022/10/27 04:18:23;;;;;;;;;4.25;1.00;;;;;18.35;70.76;101486.03;5055406;28;46108;-67
2022/10/27 04:20:49;;;;;;;;;2.00;2.00;;;;;17.91;70.34;101407.63;5055648;28;45271;-67
2022/10/27 04:23:14;;;;;;;;;1.00;1.00;;;;;18.33;70.56;101488.03;5055656;28;45722;-67
2022/10/27 04:25:39;;;;;;;;;1.50;1.00;;;;;17.26;70.62;101323.72;5054911;28;45377;-67
2022/10/27 04:28:07;;;;;;;;;4.00;3.00;;;;;18.20;70.74;101463.84;5055474;28;46225;-67
2022/10/27 04:30:32;;;;;;;;;2.00;2.00;;;;;18.33;70.77;101482.63;5055462;28;45421;-67
2022/10/27 04:32:58;;;;;;;;;3.75;2.50;;;;;16.16;70.30;101125.72;5071034;28;45527;-67
2022/10/27 04:35:24;;;;;;;;;2.00;2.00;;;;;17.99;70.65;101417.81;5055264;28;45350;-67
2022/10/27 04:37:49;;;;;;;;;2.75;2.25;;;;;18.33;70.69;101464.56;5055000;28;46635;-67
2022/10/27 04:40:15;;;;;;;;;2.00;2.00;;;;;18.33;70.37;101461.03;5055063;28;45473;-67
2022/10/27 04:42:45;;;;;;;;;2.00;2.00;;;;;18.24;70.65;101448.25;5055308;28;45393;-67
2022/10/27 04:45:11;;;;;;;;;1.67;1.67;;;;;18.23;70.70;101441.13;5055254;28;45472;-67
2022/10/27 04:47:36;;;;;;;;;2.00;2.00;;;;;18.11;70.63;101429.47;5054983;28;45396;-67
2022/10/27 04:50:02;;;;;;;;;2.00;2.00;;;;;18.24;71.19;101456.38;5053647;28;45481;-67
2022/10/27 04:52:27;;;;;;;;;2.00;2.00;;;;;17.85;70.76;101383.81;5070249;28;45357;-67
2022/10/27 04:54:52;;;;;;;;;3.33;1.33;;;;;18.22;70.50;101456.50;5054874;28;45333;-67
2022/10/27 04:57:18;;;;;;;;;2.00;2.00;;;;;18.20;70.71;101460.28;5055116;28;45532;-67
2022/10/27 04:59:43;;;;;;;;;5.00;2.75;;;;;18.19;70.90;101472.06;5054832;28;45404;-67
2022/10/27 05:02:08;;;;;;;;;3.00;2.75;;;;;18.19;70.95;101463.97;5055163;28;45388;-68
2022/10/27 05:04:34;;;;;;;;;4.50;3.00;;;;;18.18;71.22;101462.25;5055461;28;45666;-71
2022/10/27 05:06:59;;;;;;;;;1.25;1.25;;;;;18.17;70.76;101461.41;5053877;28;48136;-70
2022/10/27 05:09:24;;;;;;;;;4.75;3.25;;;;;17.89;70.87;101420.38;5054878;28;47322;-71
2022/10/27 05:11:50;;;;;;;;;3.00;3.00;;;;;18.10;70.93;101461.03;5055467;28;45240;-69
2022/10/27 05:14:15;;;;;;;;;2.67;2.67;;;;;18.09;70.81;101453.91;5053646;28;45432;-69
2022/10/27 05:16:40;;;;;;;;;3.00;3.00;;;;;18.09;70.74;101448.50;5054757;28;45667;-69
2022/10/27 05:19:06;;;;;;;;;3.50;1.25;;;;;18.10;71.04;101446.69;5054831;28;45328;-69
2022/10/27 05:21:31;;;;;;;;;5.00;2.50;;;;;17.60;71.07;101363.31;5054767;28;45388;-68
2022/10/27 05:23:57;;;;;;;;;3.00;3.00;;;;;18.05;71.31;101436.22;5070213;28;45477;-67
2022/10/27 05:26:22;;;;;;;;;2.50;2.50;;;;;18.11;70.94;101446.56;5036480;28;47403;-67
2022/10/27 05:28:47;;;;;;;;;2.00;2.00;;;;;18.12;70.92;101437.44;5054676;28;45488;-67
2022/10/27 05:31:13;;;;;;;;;2.25;2.25;;;;;18.11;70.78;101445.69;5054836;28;45171;-67
2022/10/27 05:33:38;;;;;;;;;4.00;2.75;;;;;18.12;70.92;101442.00;5054953;28;45363;-66
2022/10/27 05:36:04;;;;;;;;;3.00;2.00;;;;;18.10;71.05;101444.81;5054729;28;47330;-67
2022/10/27 05:38:29;;;;;;;;;2.00;2.00;;;;;17.92;71.26;101419.31;5056920;28;45436;-67
2022/10/27 05:40:58;;;;;;;;;2.75;2.75;;;;;18.07;71.25;101450.47;5055133;28;45469;-67
2022/10/27 05:43:23;;;;;;;;;3.00;3.00;;;;;18.07;71.15;101438.81;5055157;28;45453;-66
2022/10/27 05:45:50;;;;;;;;;4.00;2.50;;;;;18.06;71.07;101437.06;5054663;28;45587;-67
2022/10/27 05:48:16;;;;;;;;;4.75;2.50;;;;;18.06;70.97;101437.97;5054424;28;45402;-66
2022/10/27 05:50:41;;;;;;;;;2.75;2.75;;;;;18.08;71.21;101435.13;5054617;28;45378;-67
2022/10/27 05:53:06;;;;;;;;;2.00;2.00;;;;;18.09;71.21;101435.00;5069793;28;45604;-67
2022/10/27 05:55:33;;;;;;;;;2.00;2.00;;;;;18.09;71.49;101432.31;5052948;28;45477;-67
2022/10/27 05:58:01;;;;;;;;;3.00;3.00;;;;;18.13;71.13;101427.53;5054470;28;45518;-67
2022/10/27 06:00:30;;;;;;;;;3.50;3.50;;;;;18.11;70.89;101413.28;5052867;28;45378;-67
2022/10/27 06:02:56;;;;;;;;;3.00;3.00;;;;;18.09;70.89;101399.91;5054227;28;45573;-67
2022/10/27 06:05:22;;;;;;;;;4.50;4.50;;;;;18.18;70.84;101408.25;5055497;28;45477;-67
2022/10/27 06:07:48;;;;;;;;;4.00;4.00;;;;;17.91;70.89;101360.88;5057580;28;45294;-67
2022/10/27 06:10:13;;;;;;;;;5.00;4.00;;;;;17.44;70.69;101286.34;5057883;28;45304;-66
2022/10/27 06:12:38;;;;;;;;;2.75;2.75;;;;;18.20;70.72;101407.13;5057991;28;45212;-66
2022/10/27 06:15:04;;;;;;;;;4.00;3.75;;;;;18.21;71.00;101413.41;5057266;28;45236;-66
2022/10/27 06:17:29;;;;;;;;;3.00;2.50;;;;;18.22;70.61;101425.91;5056233;28;45448;-66
2022/10/27 06:19:55;;;;;;;;;4.00;2.75;;;;;18.21;70.86;101424.22;5057807;28;45356;-66
2022/10/27 06:22:20;;;;;;;;;3.00;2.75;;;;;18.13;70.43;101405.94;5057287;28;45359;-67
2022/10/27 06:24:45;;;;;;;;;1.75;1.75;;;;;18.21;70.80;101408.88;5057373;28;45330;-66
2022/10/27 06:27:11;;;;;;;;;3.00;2.00;;;;;18.18;70.65;101383.94;5057401;28;45416;-66
2022/10/27 06:29:36;;;;;;;;;3.25;1.50;;;;;17.91;70.90;101339.28;5057240;28;45524;-66
2022/10/27 06:32:01;;;;;;;;;4.25;4.25;;;;;18.10;70.50;101369.25;5049992;28;45409;-66
2022/10/27 06:34:27;;;;;;;;;4.25;4.25;;;;;18.26;70.68;101392.28;5036980;28;46073;-66
2022/10/27 06:36:52;;;;;;;;;4.00;2.75;;;;;18.07;70.48;101366.78;5036924;28;45342;-66
2022/10/27 06:39:17;;;;;;;;;3.25;3.00;;;;;18.20;70.59;101395.50;5037225;28;45757;-66
2022/10/27 06:41:43;;;;;;;;;2.25;2.25;;;;;17.49;70.79;101294.03;5037120;28;45389;-65
2022/10/27 06:44:08;;;;;;;;;4.75;3.75;;;;;18.14;70.84;101396.84;5040838;28;45956;-66
2022/10/27 06:46:35;;;;;;;;;4.00;4.00;;;;;18.10;70.80;101390.84;5057083;28;45481;-66
2022/10/27 06:49:00;;;;;;;;;3.25;3.00;;;;;18.16;70.53;101401.13;5057357;28;45290;-65
2022/10/27 06:51:25;;;;;;;;;3.00;3.00;;;;;18.18;70.58;101387.53;5056851;28;45604;-66
2022/10/27 06:53:51;;;;;;;;;3.00;3.00;;;;;18.12;70.53;101383.44;5056754;28;45432;-66
2022/10/27 06:56:17;;;;;;;;;4.25;4.00;;;;;18.10;70.69;101384.59;5056767;28;45385;-66
2022/10/27 06:58:43;;;;;;;;;3.00;1.75;;;;;18.14;70.81;101389.59;5056699;28;45234;-65
2022/10/27 07:01:08;;;;;;;;;3.25;3.25;;;;;17.14;70.66;101228.50;5044377;28;45354;-65
2022/10/27 07:03:34;;;;;;;;;4.00;4.00;;;;;17.56;70.76;101310.59;5041402;28;45331;-65
2022/10/27 07:06:01;;;;;;;;;2.75;2.75;;;;;18.02;70.93;101392.41;5036355;28;45863;-66
2022/10/27 07:08:26;;;;;;;;;7.25;4.50;;;;;17.80;70.71;101359.03;5036662;28;45446;-65
2022/10/27 07:10:53;;;;;;;;;3.00;3.00;;;;;18.02;70.86;101409.50;5035228;28;45510;-65
2022/10/27 07:13:18;;;;;;;;;3.50;3.25;;;;;18.12;70.82;101423.94;5036509;28;45736;-66
2022/10/27 07:15:43;;;;;;;;;4.75;3.50;;;;;18.11;70.67;101418.69;5035527;28;45394;-65
2022/10/27 07:18:10;;;;;;;;;3.00;3.00;;;;;17.91;71.08;101393.25;5041380;28;45446;-65
2022/10/27 07:20:37;;;;;;;;;5.00;3.00;;;;;17.69;70.84;101359.03;5046013;28;45518;-67
2022/10/27 07:23:03;;;;;;;;;4.00;4.00;;;;;17.10;70.28;101251.28;5044159;28;46589;-65
2022/10/27 07:25:30;;;;;;;;;5.00;5.00;;;;;18.34;70.08;101449.22;5045644;28;45321;-66
2022/10/27 07:27:56;;;;;;;;;3.00;3.00;;;;;18.40;70.07;101456.81;5045711;28;45495;-65
2022/10/27 07:30:25;;;;;;;;;4.50;4.50;;;;;18.37;70.04;101467.88;5044562;28;45809;-67
2022/10/27 07:32:50;;;;;;;;;6.00;4.25;;;;;18.49;70.16;101474.16;5044241;28;46476;-67
2022/10/27 07:35:15;;;;;;;;;4.00;4.00;;;;;18.58;69.71;101472.53;5045477;28;45363;-64
2022/10/27 07:37:43;;;;;;;;;5.00;4.00;;;;;18.64;69.50;101472.03;5044004;28;45339;-65
2022/10/27 07:40:09;;;;;;;;;4.25;3.00;;;;;18.63;69.19;101463.03;5045343;28;45564;-64
2022/10/27 07:42:44;;;;;;;;;4.00;1.25;;;;;18.77;69.04;101470.03;5046003;28;45705;-64
2022/10/27 07:45:11;;;;;;;;;4.75;2.75;;;;;18.82;68.95;101473.19;5044942;28;45577;-65
2022/10/27 07:47:36;;;;;;;;;2.00;2.00;;;;;18.81;68.38;101471.50;5043399;28;45317;-66
2022/10/27 07:50:01;;;;;;;;;2.75;2.50;;;;;18.70;68.53;101452.59;5046390;28;45369;-66
2022/10/27 07:52:27;;;;;;;;;3.00;3.00;;;;;18.80;68.87;101458.97;5044286;28;46565;-65
2022/10/27 07:54:52;;;;;;;;;4.00;3.25;;;;;18.81;68.63;101452.56;5045243;28;45341;-64
2022/10/27 07:57:17;;;;;;;;;3.00;3.00;;;;;18.77;68.46;101470.03;5044491;28;45421;-64
2022/10/27 07:59:42;;;;;;;;;6.00;5.00;;;;;18.83;68.71;101483.03;5045888;28;45516;-65
2022/10/27 08:02:10;;;;;;;;;3.75;2.75;;;;;18.89;68.40;101473.56;5046237;28;45357;-66
2022/10/27 08:04:35;;;;;;;;;3.25;2.75;;;;;18.82;68.14;101454.28;5044841;28;45421;-65
2022/10/27 08:07:01;;;;;;;;;3.00;3.00;;;;;18.89;68.27;101468.16;5045437;28;45298;-65
2022/10/27 08:09:26;;;;;;;;;3.25;3.00;;;;;18.61;68.23;101424.50;5044617;28;45481;-65
2022/10/27 08:11:51;;;;;;;;;5.50;4.25;;;;;18.91;68.48;101457.22;5043788;28;45377;-65
2022/10/27 08:14:17;;;;;;;;;4.00;3.00;;;;;18.95;68.36;101456.00;5043929;28;45484;-64
2022/10/27 08:16:42;;;;;;;;;4.00;4.00;;;;;19.00;68.18;101464.56;5043585;28;45275;-65
2022/10/27 08:19:07;;;;;;;;;5.75;5.75;;;;;19.01;68.06;101471.69;5044296;28;45441;-64
2022/10/27 08:21:33;;;;;;;;;7.00;5.00;;;;;19.01;68.11;101473.56;5044826;28;48192;-65
2022/10/27 08:23:58;;;;;;;;;2.00;2.00;;;;;19.08;68.34;101482.84;5043182;28;46584;-65
2022/10/27 08:26:23;;;;;;;;;6.00;4.25;;;;;19.10;68.14;101479.03;5044852;28;45275;-65
2022/10/27 08:28:49;;;;;;;;;3.00;3.00;;;;;19.01;67.56;101466.28;5043778;28;45389;-64
2022/10/27 08:31:14;;;;;;;;;6.50;4.00;;;;;19.09;68.08;101477.31;5043148;28;45663;-66
2022/10/27 08:33:39;;;;;;;;;3.00;3.00;;;;;19.10;67.39;101481.75;5041929;28;45818;-65
2022/10/27 08:36:05;;;;;;;;;3.75;3.75;;;;;18.89;67.14;101451.09;5033906;28;45614;-64
2022/10/27 08:38:31;;;;;;;;;3.67;3.00;;;;;19.03;67.74;101476.97;5060887;28;45436;-66
2022/10/27 08:41:24;;;;;;;;;3.50;1.75;;;;;19.12;67.50;101495.13;5041428;28;45486;-64
2022/10/27 08:43:52;;;;;;;;;6.00;5.00;;;;;19.20;67.58;101497.19;5044259;28;45232;-64
2022/10/27 08:46:40;;;;;;;;;4.00;4.00;;;;;18.40;67.47;101364.16;5041133;28;45743;-67
2022/10/27 08:49:26;;;;;;;;;3.00;3.00;;;;;19.22;67.00;101503.31;5045262;28;45405;-65
2022/10/27 08:51:58;;;;;;;;;4.75;3.75;;;;;19.24;67.10;101513.03;5044283;28;46609;-65
2022/10/27 08:54:26;;;;;;;;;5.00;3.75;;;;;19.18;67.16;101510.84;5046452;28;45504;-65
2022/10/27 08:56:56;;;;;;;;;8.50;4.75;;;;;19.35;67.37;101516.69;5044506;28;45447;-65
2022/10/27 08:59:24;;;;;;;;;5.00;4.75;;;;;19.41;67.30;101521.56;5044238;28;45680;-64
2022/10/27 09:02:06;;;;;;;;;4.50;3.50;;;;;19.43;66.70;101515.03;5042850;28;46780;-63
2022/10/27 09:04:43;;;;;;;;;3.75;3.00;;;;;19.56;66.81;101514.00;5044289;28;45359;-64
2022/10/27 09:07:18;;;;;;;;;7.50;5.75;;;;;19.81;65.91;101519.06;5043738;28;45367;-65
2022/10/27 09:09:52;;;;;;;;;5.75;4.25;;;;;19.90;65.67;101516.53;5043035;28;45505;-65
2022/10/27 09:12:41;;;;;;;;;4.00;4.00;;;;;19.86;65.32;101501.56;5042138;28;46483;-64
2022/10/27 09:15:31;;;;;;;;;3.50;3.25;;;;;19.92;65.29;101509.13;5043061;28;45463;-64
2022/10/27 09:18:16;;;;;;;;;4.75;3.75;;;;;19.99;64.87;101505.75;5043401;28;45438;-64
2022/10/27 09:20:51;;;;;;;;;4.00;4.00;;;;;20.11;65.05;101501.13;5034622;28;45500;-63
2022/10/27 09:23:18;;;;;;;;;5.75;4.00;;;;;20.01;64.32;101481.25;5034585;28;46493;-64
2022/10/27 09:25:47;;;;;;;;;4.00;4.00;;;;;20.08;65.13;101496.00;5034676;28;45430;-64
2022/10/27 09:28:36;;;;;;;;;5.00;5.00;;;;;20.19;64.65;101515.84;5034473;28;45342;-65
2022/10/27 09:31:04;;;;;;;;;5.25;4.50;;;;;20.23;64.83;101512.72;5034149;28;45477;-64
2022/10/27 09:33:33;;;;;;;;;4.25;4.00;;;;;20.06;64.63;101484.41;5046819;28;46084;-64
2022/10/27 09:36:05;;;;;;;;;5.25;4.25;;;;;20.26;64.67;101511.56;5054691;28;45363;-64
2022/10/27 09:38:30;;;;;;;;;5.00;5.00;;;;;20.47;64.01;101525.94;5054923;28;45453;-64
2022/10/27 09:40:56;;;;;;;;;4.00;4.00;;;;;20.57;64.37;101525.09;5057246;28;45271;-65
2022/10/27 09:43:22;;;;;;;;;5.25;5.25;;;;;20.70;63.47;101525.75;5058087;28;46435;-64
2022/10/27 09:45:54;;;;;;;;;4.00;4.00;;;;;20.82;63.38;101531.91;5057909;28;45362;-66
2022/10/27 09:48:22;;;;;;;;;4.25;4.25;;;;;20.95;63.25;101528.97;5052064;28;45532;-63
2022/10/27 09:51:26;;;;;;;;;7.50;6.75;;;;;21.05;63.23;101518.97;5047387;28;45433;-65
2022/10/27 09:53:53;;;;;;;;;5.00;5.00;;;;;20.84;62.42;101462.16;5044840;28;46329;-65
2022/10/27 09:56:18;;;;;;;;;4.00;4.00;;;;;21.20;62.58;101505.00;5046460;28;45453;-65
2022/10/27 09:58:50;;;;;;;;;5.67;4.00;;;;;21.18;62.20;101492.44;5046906;28;45444;-65
2022/10/27 10:01:16;;;;;;;;;5.00;5.00;;;;;21.12;62.50;101490.31;5045708;28;45461;-64
2022/10/27 10:03:53;;;;;;;;;3.75;3.75;;;;;21.18;62.38;101491.59;5046177;28;46179;-64
2022/10/27 10:06:27;;;;;;;;;7.75;6.25;;;;;21.07;62.53;101484.44;5046088;28;45475;-64
2022/10/27 10:08:52;;;;;;;;;8.50;6.00;;;;;21.32;62.59;101503.84;5043888;28;45335;-64
2022/10/27 10:11:21;;;;;;;;;5.25;5.00;;;;;21.41;62.23;101502.16;5046714;28;45286;-65
2022/10/27 10:13:59;;;;;;;;;6.00;6.00;;;;;21.46;62.32;101510.69;5046858;28;47621;-65
2022/10/27 10:16:27;;;;;;;;;8.00;7.25;;;;;21.48;61.73;101498.69;5046541;28;45339;-67
2022/10/27 10:19:14;;;;;;;;;5.33;4.33;;;;;21.31;61.65;101462.31;5046994;28;45510;-67
2022/10/27 10:21:47;;;;;;;;;6.50;4.00;;;;;21.70;61.40;101513.00;5046672;28;45618;-67
2022/10/27 10:24:33;;;;;;;;;8.75;8.50;;;;;21.71;61.07;101511.16;5045627;28;46293;-66
2022/10/27 10:27:00;;;;;;;;;5.75;5.00;;;;;21.81;61.16;101514.69;5046324;28;45307;-65
2022/10/27 10:29:33;;;;;;;;;8.00;6.00;;;;;21.86;60.94;101516.97;5044643;28;45412;-66
2022/10/27 10:32:11;;;;;;;;;5.25;2.50;;;;;21.93;60.94;101520.81;5047492;28;45200;-64
2022/10/27 10:34:36;;;;;;;;;7.50;5.75;;;;;21.62;61.07;101464.00;5050895;28;46254;-65
2022/10/27 10:37:03;;;;;;;;;5.00;5.00;;;;;21.96;60.79;101524.09;5045020;28;45346;-66
2022/10/27 10:39:34;;;;;;;;;5.25;4.00;;;;;21.90;60.47;101515.69;5044237;28;45413;-65
2022/10/27 10:42:18;;;;;;;;;6.00;5.00;;;;;22.05;60.33;101519.63;5045336;28;45350;-65
2022/10/27 10:44:43;;;;;;;;;4.00;3.67;;;;;22.13;60.75;101518.91;5045779;28;45388;-66
2022/10/27 10:47:25;;;;;;;;;9.75;5.75;;;;;22.08;60.12;101516.63;5043076;28;45872;-67
2022/10/27 10:49:55;;;;;;;;;8.25;7.00;;;;;22.09;60.88;101518.31;5044352;28;45267;-66
2022/10/27 10:52:35;;;;;;;;;6.75;5.00;;;;;21.76;61.04;101430.13;5047098;28;45339;-67
2022/10/27 10:55:06;;;;;;;;;6.50;6.00;;;;;22.28;59.96;101505.69;5044131;28;47358;-64
2022/10/27 10:57:40;;;;;;;;;5.00;5.00;;;;;22.26;60.28;101494.97;5045221;28;45483;-66
2022/10/27 11:00:14;;;;;;;;;5.00;5.00;;;;;22.46;59.57;101514.78;5046360;28;45459;-65
2022/10/27 11:02:40;;;;;;;;;5.50;4.00;;;;;22.51;60.56;101522.47;5045102;28;45466;-65
2022/10/27 11:05:18;;;;;;;;;6.00;6.00;;;;;22.00;59.44;101418.72;5044627;28;46397;-65
2022/10/27 11:07:46;;;;;;;;;8.25;6.75;;;;;21.79;59.40;101364.66;5044560;28;45469;-65
2022/10/27 11:10:15;;;;;;;;;9.75;8.75;;;;;22.41;59.61;101479.03;5044273;28;45380;-66
2022/10/27 11:12:55;;;;;;;;;7.50;7.50;;;;;22.54;59.31;101491.41;5040179;28;45610;-67
2022/10/27 11:15:36;;;;;;;;;8.50;7.50;;;;;22.60;59.67;101501.69;5043728;28;45628;-67
2022/10/27 11:18:13;;;;;;;;;5.00;5.00;;;;;22.43;59.76;101449.00;5044227;28;45332;-66
2022/10/27 11:20:42;;;;;;;;;6.25;6.25;;;;;22.76;59.45;101495.59;5059233;28;45412;-64
2022/10/27 11:23:17;;;;;;;;;5.50;5.25;;;;;22.94;59.17;101484.72;5046553;28;45560;-68
2022/10/27 11:25:44;;;;;;;;;5.00;5.00;;;;;23.29;58.23;101486.63;5046258;28;45368;-67
2022/10/27 11:28:18;;;;;;;;;9.00;7.00;;;;;23.55;57.35;101487.69;5046718;28;45238;-66
2022/10/27 11:31:08;;;;;;;;;7.25;5.50;;;;;23.78;56.96;101491.63;5036702;28;45407;-65
2022/10/27 11:33:44;;;;;;;;;6.00;6.00;;;;;23.96;57.15;101490.75;5036518;28;45390;-68